Latest Weather Observations for Longerenong

IDV60801

Issued at 6:31 am EST Sunday 5 July 2015 (issued every 30 minutes, with the page automatically refreshed every 10 minutes)

About weather observations | Map of weather stations | Latest weather observations for VIC | Other Formats
Station Details ID: 079028 Name: LONGERENONG Lat: -36.67 Lon: 142.30 Height: 133.0 m
Data from the previous 72 hours. | See also: Recent months at Longerenong
Date/Time
EST
Temp
°C
App
Temp
°C
Dew
Point
Rel
Hum
%
Delta-T
°C
Wind Press
QNH
hPa
Press
MSL
hPa
Rain
since 9 am
mm
Dir
 
Spd
km/h
Gust
km/h
Spd
kts
Gust
kts
05/06:30am 5.9 3.1 3.4 84 1.1 N 7 9 4 5 - - 0.0
05/06:00am 6.0 3.5 3.5 84 1.1 NNE 6 7 3 4 - - 0.0
05/05:30am 6.2 3.1 3.5 83 1.1 N 9 13 5 7 - - 0.0
05/05:00am 6.2 3.1 3.5 83 1.1 N 9 15 5 8 - - 0.0
05/04:30am 5.9 3.1 3.2 83 1.1 N 7 11 4 6 - - 0.0
05/04:00am 5.9 3.1 3.2 83 1.1 NNE 7 11 4 6 - - 0.0
05/03:30am 5.8 3.2 3.1 83 1.1 N 6 9 3 5 - - 0.0
05/03:00am 5.6 2.9 2.9 83 1.1 N 6 9 3 5 - - 0.0
05/02:30am 5.4 2.2 2.9 84 1.0 N 9 13 5 7 - - 0.0
05/02:00am 5.1 1.5 3.0 86 0.9 N 11 13 6 7 - - 0.0
05/01:30am 4.6 0.6 2.6 87 0.8 N 13 17 7 9 - - 0.0
05/01:00am 5.0 1.4 2.7 85 0.9 N 11 17 6 9 - - 0.0
05/12:30am 5.4 1.4 2.9 84 1.0 N 13 19 7 10 - - 0.0
05/12:00am 5.7 1.8 3.2 84 1.0 N 13 17 7 9 - - 0.0
 
Date/Time
EST
Temp
°C
App
Temp
°C
Dew
Point
Rel
Hum
%
Delta-T
°C
Wind Press
QNH
hPa
Press
MSL
hPa
Rain
since 9 am
mm
Dir
 
Spd
km/h
Gust
km/h
Spd
kts
Gust
kts
04/11:30pm 6.2 2.3 3.4 82 1.2 N 13 17 7 9 - - 0.0
04/11:00pm 5.5 1.9 3.0 84 1.0 N 11 15 6 8 - - 0.0
04/10:30pm 6.2 2.6 3.0 80 1.3 N 11 17 6 9 - - 0.0
04/10:00pm 6.2 2.6 3.2 81 1.3 N 11 13 6 7 - - 0.0
04/09:30pm 6.8 3.7 3.6 80 1.4 N 9 11 5 6 - - 0.0
04/09:00pm 8.2 5.2 4.2 76 1.8 N 9 13 5 7 - - 0.0
04/08:30pm 8.6 5.7 4.8 77 1.7 N 9 11 5 6 - - 0.0
04/08:00pm 8.6 6.1 4.6 76 1.8 NNW 7 9 4 5 - - 0.0
04/07:30pm 8.9 6.4 4.7 75 1.9 NNW 7 9 4 5 - - 0.0
04/07:00pm 9.0 6.7 4.8 75 1.9 NNW 6 7 3 4 - - 0.0
04/06:30pm 9.6 7.1 4.8 72 2.2 NNW 7 9 4 5 - - 0.0
04/06:00pm 10.3 7.8 4.9 69 2.5 NNW 7 9 4 5 - - 0.0
04/05:30pm 12.0 9.3 5.4 64 3.1 NW 9 15 5 8 - - 0.0
04/05:00pm 12.7 9.6 5.6 62 3.3 NW 11 13 6 7 - - 0.0
04/04:30pm 13.0 10.3 5.7 61 3.5 NW 9 15 5 8 - - 0.0
04/04:00pm 13.3 10.6 5.5 59 3.7 NW 9 13 5 7 - - 0.0
04/03:30pm 13.6 10.6 6.0 60 3.6 NW 11 19 6 10 - - 0.0
04/03:00pm 13.8 11.1 5.7 58 3.9 NW 9 17 5 9 - - 0.0
04/02:30pm 12.9 9.4 5.3 60 3.6 N 13 20 7 11 - - 0.0
04/02:00pm 12.3 9.0 4.5 59 3.6 NNW 11 17 6 9 - - 0.0
04/01:30pm 11.5 7.8 4.3 61 3.3 NW 13 19 7 10 - - 0.0
04/01:00pm 11.4 7.3 4.4 62 3.2 NW 15 19 8 10 - - 0.0
04/12:30pm 10.7 6.9 4.0 63 3.0 NW 13 19 7 10 - - 0.0
04/12:00pm 10.5 6.7 4.0 64 2.9 NNW 13 19 7 10 - - 0.0
04/11:30am 10.1 6.2 3.6 64 2.9 NW 13 17 7 9 - - 0.0
04/11:00am 9.7 6.3 3.9 67 2.6 NNW 11 17 6 9 - - 0.0
04/10:30am 9.1 6.1 3.9 70 2.3 NNW 9 15 5 8 - - 0.0
04/10:00am 7.6 5.0 3.1 73 1.9 N 6 7 3 4 - - 0.0
04/09:30am 7.4 4.3 3.5 76 1.7 N 9 13 5 7 - - 0.0
04/09:00am 6.8 4.1 2.9 76 1.6 NNW 6 7 3 4 - - 0.0
04/08:30am 6.3 4.8 3.1 80 1.3 CALM 0 2 0 1 - - 0.0
04/08:00am 6.1 2.8 2.7 79 1.4 WNW 9 11 5 6 - - 0.0
04/07:30am 6.0 3.1 2.5 78 1.4 NW 7 9 4 5 - - 0.0
04/07:00am 6.0 3.0 2.3 77 1.5 NW 7 9 4 5 - - 0.0
04/06:30am 6.1 2.3 2.0 75 1.7 NNW 11 15 6 8 - - 0.0
04/06:00am 5.8 2.8 2.1 77 1.5 NNW 7 9 4 5 - - 0.0
04/05:30am 5.6 2.2 1.9 77 1.5 NNW 9 11 5 6 - - 0.0
04/05:00am 4.7 1.9 2.2 84 1.0 NNW 6 9 3 5 - - 0.0
04/04:30am 3.7 0.2 1.4 85 0.9 N 9 9 5 5 - - 0.0
04/04:00am 3.8 0.3 1.5 85 0.9 N 9 11 5 6 - - 0.0
04/03:30am 4.6 1.2 1.8 82 1.1 N 9 13 5 7 - - 0.0
04/03:00am 4.6 1.6 1.8 82 1.1 N 7 11 4 6 - - 0.0
04/02:30am 4.9 1.9 1.9 81 1.2 N 7 9 4 5 - - 0.0
04/02:00am 5.8 2.4 1.7 75 1.7 N 9 13 5 7 - - 0.0
04/01:30am 5.7 2.9 2.0 77 1.5 N 6 7 3 4 - - 0.0
04/01:00am 5.8 3.4 2.3 78 1.4 N 4 4 2 2 - - 0.0
04/12:30am 5.7 2.9 2.0 77 1.5 N 6 6 3 3 - - 0.0
04/12:00am 6.2 3.1 1.5 72 1.9 N 7 11 4 6 - - 0.0
 
Date/Time
EST
Temp
°C
App
Temp
°C
Dew
Point
Rel
Hum
%
Delta-T
°C
Wind Press
QNH
hPa
Press
MSL
hPa
Rain
since 9 am
mm
Dir
 
Spd
km/h
Gust
km/h
Spd
kts
Gust
kts
03/11:30pm 5.8 2.7 1.5 74 1.7 N 7 7 4 4 - - 0.0
03/11:00pm 5.8 2.7 1.5 74 1.7 N 7 9 4 5 - - 0.0
03/10:30pm 5.6 2.6 1.7 76 1.6 N 7 9 4 5 - - 0.0
03/10:00pm 5.3 2.2 1.4 76 1.6 N 7 9 4 5 - - 0.0
03/09:30pm 6.5 3.3 0.8 67 2.3 N 7 9 4 5 - - 0.0
03/09:00pm 5.5 2.0 1.1 73 1.7 N 9 9 5 5 - - 0.0
03/08:30pm 5.7 2.6 1.1 72 1.8 N 7 7 4 4 - - 0.0
03/08:00pm 6.2 3.7 1.7 73 1.8 NW 4 6 2 3 - - 0.0
03/07:30pm 5.9 3.0 1.2 72 1.9 NW 6 6 3 3 - - 0.0
03/07:00pm 6.4 4.6 1.5 71 2.0 CALM 0 0 0 0 - - 0.0
03/06:30pm 6.9 5.1 1.0 66 2.4 CALM 0 2 0 1 - - 0.0
03/06:00pm 7.5 5.2 0.7 62 2.7 WSW 2 4 1 2 - - 0.0
03/05:30pm 8.1 5.5 0.8 60 3.0 W 4 6 2 3 - - 0.0
03/05:00pm 9.0 5.5 1.0 57 3.3 W 9 11 5 6 - - 0.0
03/04:30pm 9.9 5.9 0.5 52 3.8 W 11 15 6 8 - - 0.0
03/04:00pm 10.2 7.0 0.5 51 4.0 NW 7 11 4 6 - - 0.0
03/03:30pm 10.4 6.5 1.0 52 3.9 NW 11 19 6 10 - - 0.0
03/03:00pm 10.3 6.4 0.9 52 3.9 WSW 11 20 6 11 - - 0.0
03/02:30pm 10.9 7.9 0.9 50 4.2 NW 6 11 3 6 - - 0.0
03/02:00pm 10.5 6.9 0.5 50 4.1 WNW 9 17 5 9 - - 0.0
03/01:30pm 9.8 5.8 0.7 53 3.7 WNW 11 19 6 10 - - 0.0
03/01:00pm 10.3 6.4 0.9 52 3.9 WNW 11 19 6 10 - - 0.0
03/12:30pm 10.0 6.6 1.9 57 3.4 WNW 9 15 5 8 - - 0.0
03/12:00pm 9.3 6.0 2.4 62 2.9 NW 9 13 5 7 - - 0.0
03/11:30am 8.9 6.2 2.7 65 2.6 WNW 6 11 3 6 - - 0.0
03/11:00am 7.9 6.6 3.9 76 1.7 CALM 0 0 0 0 - - 0.0
03/10:30am 5.5 4.1 3.3 86 0.9 CALM 0 0 0 0 - - 0.0
03/10:00am 3.2 1.5 2.0 92 0.5 CALM 0 0 0 0 - - 0.0
03/09:30am 1.6 -0.2 0.9 95 0.3 CALM 0 0 0 0 - - 0.0
03/09:00am 0.0 -2.0 -0.3 98 0.1 CALM 0 0 0 0 - - 0.0
03/08:30am -1.7 -4.0 -2.0 98 0.0 CALM 0 0 0 0 - - 0.0
03/08:00am -3.2 -5.7 -3.7 96 0.0 CALM 0 0 0 0 - - 0.0
03/07:30am -2.8 -5.2 -3.2 97 0.0 CALM 0 0 0 0 - - 0.0
03/07:00am -3.7 -6.2 -4.4 95 0.1 CALM 0 0 0 0 - - 0.0
03/06:30am -2.4 -4.8 -2.9 96 0.1 CALM 0 0 0 0 - - 0.0
03/06:00am -1.9 -4.6 -2.3 97 0.1 WSW 2 2 1 1 - - 0.0
03/05:30am -0.6 -3.5 -1.0 97 0.1 WSW 4 4 2 2 - - 0.0
03/05:00am -2.1 -5.2 -2.6 96 0.1 WSW 4 6 2 3 - - 0.0
03/04:30am -2.7 -5.9 -3.5 94 0.1 WSW 4 4 2 2 - - 0.0
03/04:00am -1.9 -4.2 -2.7 94 0.2 CALM 0 0 0 0 - - 0.0
03/03:30am -1.3 -3.6 -2.1 94 0.2 CALM 0 0 0 0 - - 0.0
03/03:00am -1.0 -4.4 -1.8 94 0.2 WSW 6 6 3 3 - - 0.0
03/02:30am -0.7 -4.1 -1.7 93 0.3 WSW 6 6 3 3 - - 0.0
03/02:00am 0.3 -2.5 -0.5 94 0.3 WSW 4 6 2 3 - - 0.0
03/01:30am 0.5 -2.3 -0.2 95 0.3 SW 4 6 2 3 - - 0.0
03/01:00am 0.5 -2.8 -0.9 90 0.5 SSW 6 7 3 4 - - 0.0
03/12:30am -0.4 -3.4 -1.5 92 0.4 SSW 4 6 2 3 - - 0.0
03/12:00am 0.8 -3.4 -0.8 89 0.6 S 11 13 6 7 - - 0.0
 
Date/Time
EST
Temp
°C
App
Temp
°C
Dew
Point
Rel
Hum
%
Delta-T
°C
Wind Press
QNH
hPa
Press
MSL
hPa
Rain
since 9 am
mm
Dir
 
Spd
km/h
Gust
km/h
Spd
kts
Gust
kts
02/11:30pm 0.7 -2.6 -1.2 87 0.7 S 6 6 3 3 - - 0.0
02/11:00pm 2.0 -1.2 -0.2 85 0.8 SSW 6 7 3 4 - - 0.0
02/10:30pm 2.0 -1.2 -0.6 83 0.9 SW 6 7 3 4 - - 0.0
02/10:00pm 2.2 -1.0 -0.7 81 1.1 SW 6 7 3 4 - - 0.0
02/09:30pm 3.0 -0.2 -0.3 79 1.2 SW 6 6 3 3 - - 0.0
02/09:00pm 3.6 0.3 -0.2 76 1.4 SW 7 7 4 4 - - 0.0
02/08:30pm 3.5 0.2 -0.1 77 1.4 SSW 7 9 4 5 - - 0.0
02/08:00pm 3.9 0.2 -0.1 75 1.5 SSW 9 11 5 6 - - 0.0
02/07:30pm 4.3 0.9 -0.3 72 1.7 S 7 9 4 5 - - 0.0
02/07:00pm 5.0 1.7 0.0 70 1.9 SSW 7 9 4 5 - - 0.0
02/06:30pm 6.6 2.6 0.5 65 2.4 S 11 13 6 7 - - 0.0
02/06:00pm 8.9 4.6 0.9 57 3.3 SSW 13 17 7 9 - - 0.0
02/05:30pm 9.8 4.3 0.7 53 3.7 S 19 24 10 13 - - 0.0
02/05:00pm 10.7 6.4 1.3 52 3.9 S 13 19 7 10 - - 0.0
02/04:30pm 10.9 5.3 0.9 50 4.2 S 20 26 11 14 - - 0.0
02/04:00pm 11.6 5.3 1.5 50 4.3 S 24 30 13 16 - - 0.0
02/03:30pm 11.9 5.7 -0.6 42 5.1 SW 22 30 12 16 - - 0.0
02/03:00pm 11.3 5.5 -0.2 45 4.7 S 20 30 11 16 - - 0.0
02/02:30pm 12.1 6.7 2.3 51 4.3 SW 20 28 11 15 - - 0.0
02/02:00pm 11.8 5.8 3.3 56 3.8 SW 24 32 13 17 - - 0.0
02/01:30pm 12.1 5.8 1.7 49 4.5 SSW 24 33 13 18 - - 0.0
02/01:00pm 11.7 5.4 4.0 59 3.5 SW 26 37 14 20 - - 0.0
02/12:30pm 11.5 6.2 5.2 65 2.9 SW 22 32 12 17 - - 0.0
02/12:00pm 11.1 5.2 5.8 70 2.5 SW 26 35 14 19 - - 0.0
02/11:30am 10.5 3.2 4.4 66 2.7 S 32 44 17 24 - - 0.0
02/11:00am 11.3 4.6 5.4 67 2.7 SSW 30 41 16 22 - - 0.0
02/10:30am 11.0 5.3 6.6 74 2.1 SW 26 41 14 22 - - 0.0
02/10:00am 10.4 5.4 6.4 76 1.9 SW 22 32 12 17 - - 0.0
02/09:30am 9.5 5.1 6.4 81 1.4 WSW 19 26 10 14 - - 0.0
02/09:00am 8.7 4.6 6.0 83 1.2 WSW 17 22 9 12 - - 0.6
02/08:30am 8.6 4.8 5.7 82 1.3 WSW 15 20 8 11 - - 0.6
02/08:00am 8.8 4.0 5.7 81 1.4 WSW 20 26 11 14 - - 0.6
02/07:30am 8.7 3.9 5.8 82 1.3 WSW 20 26 11 14 - - 0.6
02/07:00am 9.0 5.0 6.6 85 1.1 WSW 17 32 9 17 - - 0.6

Other Formats:

Comma delimited format used in spreadsheet applications
http://www.bom.gov.au/fwo/IDV60801/IDV60801.95835.axf

JavaScript Object Notation format (JSON) in row-major order
http://www.bom.gov.au/fwo/IDV60801/IDV60801.95835.json